sensor_id;sensor_type;location;lat;lon;timestamp;pressure;altitude;pressure_sealevel;temperature;humidity
55171;BME280;41060;47.510;8.680;2022-12-20T00:01:41;97837.34;;;3.49;59.98
55171;BME280;41060;47.510;8.680;2022-12-20T00:04:08;97835.63;;;3.48;60.02
55171;BME280;41060;47.510;8.680;2022-12-20T00:06:35;97836.53;;;3.47;59.58
55171;BME280;41060;47.510;8.680;2022-12-20T00:09:04;97841.56;;;3.51;59.99
55171;BME280;41060;47.510;8.680;2022-12-20T00:11:31;97799.97;;;3.22;59.94
55171;BME280;41060;47.510;8.680;2022-12-20T00:13:59;97826.66;;;3.53;59.40
55171;BME280;41060;47.510;8.680;2022-12-20T00:16:27;97827.41;;;3.57;59.10
55171;BME280;41060;47.510;8.680;2022-12-20T00:18:56;97815.88;;;3.61;59.72
55171;BME280;41060;47.510;8.680;2022-12-20T00:21:23;97819.25;;;3.64;58.49
55171;BME280;41060;47.510;8.680;2022-12-20T00:23:51;97819.31;;;3.63;59.17
55171;BME280;41060;47.510;8.680;2022-12-20T00:26:21;97818.16;;;3.48;59.67
55171;BME280;41060;47.510;8.680;2022-12-20T00:28:48;97818.59;;;3.36;59.74
55171;BME280;41060;47.510;8.680;2022-12-20T00:31:19;97818.69;;;3.34;59.98
55171;BME280;41060;47.510;8.680;2022-12-20T00:33:48;97781.81;;;2.95;60.75
55171;BME280;41060;47.510;8.680;2022-12-20T00:36:17;97839.09;;;3.03;61.00
55171;BME280;41060;47.510;8.680;2022-12-20T00:38:44;97839.09;;;3.03;60.84
55171;BME280;41060;47.510;8.680;2022-12-20T00:41:12;97841.03;;;2.98;61.24
55171;BME280;41060;47.510;8.680;2022-12-20T00:43:41;97831.00;;;2.86;61.80
55171;BME280;41060;47.510;8.680;2022-12-20T00:46:09;97825.06;;;2.82;61.59
55171;BME280;41060;47.510;8.680;2022-12-20T00:48:37;97818.97;;;2.82;62.35
55171;BME280;41060;47.510;8.680;2022-12-20T00:51:07;97807.06;;;2.96;60.61
55171;BME280;41060;47.510;8.680;2022-12-20T00:53:34;97797.66;;;3.14;60.68
55171;BME280;41060;47.510;8.680;2022-12-20T00:56:02;97802.53;;;3.23;60.05
55171;BME280;41060;47.510;8.680;2022-12-20T00:58:31;97795.22;;;3.31;60.20
55171;BME280;41060;47.510;8.680;2022-12-20T01:00:58;97788.75;;;3.42;59.72
55171;BME280;41060;47.510;8.680;2022-12-20T01:03:25;97792.03;;;3.47;59.15
55171;BME280;41060;47.510;8.680;2022-12-20T01:05:55;97799.94;;;3.45;59.92
55171;BME280;41060;47.510;8.680;2022-12-20T01:08:22;97817.03;;;3.32;60.17
55171;BME280;41060;47.510;8.680;2022-12-20T01:10:57;97821.69;;;3.24;60.59
55171;BME280;41060;47.510;8.680;2022-12-20T01:13:25;97787.41;;;3.08;60.82
55171;BME280;41060;47.510;8.680;2022-12-20T01:15:51;97808.97;;;3.15;60.23
55171;BME280;41060;47.510;8.680;2022-12-20T01:18:18;97816.44;;;3.02;60.64
55171;BME280;41060;47.510;8.680;2022-12-20T01:20:45;97812.59;;;2.89;61.53
55171;BME280;41060;47.510;8.680;2022-12-20T01:23:13;97802.72;;;2.74;61.54
55171;BME280;41060;47.510;8.680;2022-12-20T01:25:39;97808.88;;;2.94;60.71
55171;BME280;41060;47.510;8.680;2022-12-20T01:28:06;97812.94;;;2.80;61.20
55171;BME280;41060;47.510;8.680;2022-12-20T01:30:34;97817.13;;;2.84;60.80
55171;BME280;41060;47.510;8.680;2022-12-20T01:33:07;97818.91;;;2.83;61.05
55171;BME280;41060;47.510;8.680;2022-12-20T01:35:34;97824.06;;;2.85;61.16
55171;BME280;41060;47.510;8.680;2022-12-20T01:38:04;97814.34;;;2.88;60.89
55171;BME280;41060;47.510;8.680;2022-12-20T01:40:32;97822.81;;;2.95;61.49
55171;BME280;41060;47.510;8.680;2022-12-20T01:42:59;97806.03;;;3.01;61.08
55171;BME280;41060;47.510;8.680;2022-12-20T01:45:28;97806.53;;;3.10;60.24
55171;BME280;41060;47.510;8.680;2022-12-20T01:47:55;97801.91;;;3.17;59.57
55171;BME280;41060;47.510;8.680;2022-12-20T01:50:23;97792.84;;;3.25;59.92
55171;BME280;41060;47.510;8.680;2022-12-20T01:52:51;97789.19;;;3.29;59.53
55171;BME280;41060;47.510;8.680;2022-12-20T01:55:22;97787.69;;;3.24;59.68
55171;BME280;41060;47.510;8.680;2022-12-20T01:57:54;97791.84;;;3.06;60.12
55171;BME280;41060;47.510;8.680;2022-12-20T02:00:22;97788.28;;;3.09;60.37
55171;BME280;41060;47.510;8.680;2022-12-20T02:02:50;97783.81;;;2.89;60.18
55171;BME280;41060;47.510;8.680;2022-12-20T02:05:21;97788.03;;;2.70;61.22
55171;BME280;41060;47.510;8.680;2022-12-20T02:07:51;97793.53;;;2.62;61.44
55171;BME280;41060;47.510;8.680;2022-12-20T02:10:22;97790.94;;;2.62;61.08
55171;BME280;41060;47.510;8.680;2022-12-20T02:12:55;97796.44;;;2.54;61.75
55171;BME280;41060;47.510;8.680;2022-12-20T02:15:31;97778.25;;;2.28;61.92
55171;BME280;41060;47.510;8.680;2022-12-20T02:18:14;97770.66;;;2.45;62.07
55171;BME280;41060;47.510;8.680;2022-12-20T02:20:53;97780.59;;;2.36;62.16
55171;BME280;41060;47.510;8.680;2022-12-20T02:23:39;97768.72;;;2.50;61.66
55171;BME280;41060;47.510;8.680;2022-12-20T02:26:27;97774.50;;;2.58;61.13
55171;BME280;41060;47.510;8.680;2022-12-20T02:29:11;97773.31;;;2.67;61.56
55171;BME280;41060;47.510;8.680;2022-12-20T02:31:55;97768.16;;;2.66;61.45
55171;BME280;41060;47.510;8.680;2022-12-20T02:34:23;97765.28;;;2.72;60.82
55171;BME280;41060;47.510;8.680;2022-12-20T02:36:52;97781.59;;;2.78;60.75
55171;BME280;41060;47.510;8.680;2022-12-20T02:39:20;97766.19;;;2.71;60.42
55171;BME280;41060;47.510;8.680;2022-12-20T02:41:51;97764.63;;;2.67;60.55
55171;BME280;41060;47.510;8.680;2022-12-20T02:44:24;97733.03;;;2.49;60.55
55171;BME280;41060;47.510;8.680;2022-12-20T02:47:13;97727.13;;;2.44;60.18
55171;BME280;41060;47.510;8.680;2022-12-20T02:49:44;97765.44;;;2.45;60.67
55171;BME280;41060;47.510;8.680;2022-12-20T02:52:12;97763.78;;;2.43;61.17
55171;BME280;41060;47.510;8.680;2022-12-20T02:54:39;97756.56;;;2.49;61.35
55171;BME280;41060;47.510;8.680;2022-12-20T02:57:10;97755.53;;;2.53;60.78
55171;BME280;41060;47.510;8.680;2022-12-20T02:59:46;97757.75;;;2.64;60.43
55171;BME280;41060;47.510;8.680;2022-12-20T03:02:16;97752.16;;;2.73;60.07
55171;BME280;41060;47.510;8.680;2022-12-20T03:04:45;97738.13;;;2.76;60.55
55171;BME280;41060;47.510;8.680;2022-12-20T03:07:13;97749.25;;;2.81;60.37
55171;BME280;41060;47.510;8.680;2022-12-20T03:09:42;97690.81;;;2.60;59.32
55171;BME280;41060;47.510;8.680;2022-12-20T03:12:11;97740.94;;;2.93;59.82
55171;BME280;41060;47.510;8.680;2022-12-20T03:14:39;97745.16;;;2.97;59.84
55171;BME280;41060;47.510;8.680;2022-12-20T03:17:08;97742.63;;;2.94;59.39
55171;BME280;41060;47.510;8.680;2022-12-20T03:19:36;97734.53;;;3.00;59.46
55171;BME280;41060;47.510;8.680;2022-12-20T03:22:02;97746.84;;;2.98;59.09
55171;BME280;41060;47.510;8.680;2022-12-20T03:24:30;97735.44;;;2.99;59.93
55171;BME280;41060;47.510;8.680;2022-12-20T03:26:57;97736.75;;;2.89;59.36
55171;BME280;41060;47.510;8.680;2022-12-20T03:29:23;97739.06;;;2.96;59.66
55171;BME280;41060;47.510;8.680;2022-12-20T03:31:50;97713.81;;;2.95;59.21
55171;BME280;41060;47.510;8.680;2022-12-20T03:34:17;97709.47;;;2.94;59.03
55171;BME280;41060;47.510;8.680;2022-12-20T03:36:45;97718.97;;;2.97;58.89
55171;BME280;41060;47.510;8.680;2022-12-20T03:39:15;97710.09;;;3.01;59.45
55171;BME280;41060;47.510;8.680;2022-12-20T03:41:41;97718.59;;;3.06;58.85
55171;BME280;41060;47.510;8.680;2022-12-20T03:44:08;97702.28;;;3.00;59.22
55171;BME280;41060;47.510;8.680;2022-12-20T03:46:35;97708.81;;;2.89;59.68
55171;BME280;41060;47.510;8.680;2022-12-20T03:49:02;97707.22;;;2.85;58.89
55171;BME280;41060;47.510;8.680;2022-12-20T03:51:30;97701.09;;;2.86;60.04
55171;BME280;41060;47.510;8.680;2022-12-20T03:53:59;97705.09;;;2.95;59.11
55171;BME280;41060;47.510;8.680;2022-12-20T03:56:25;97711.75;;;2.82;59.82
55171;BME280;41060;47.510;8.680;2022-12-20T03:58:54;97716.28;;;2.77;59.76
55171;BME280;41060;47.510;8.680;2022-12-20T04:01:23;97717.81;;;2.82;59.28
55171;BME280;41060;47.510;8.680;2022-12-20T04:03:50;97718.53;;;2.64;59.98
55171;BME280;41060;47.510;8.680;2022-12-20T04:06:17;97680.59;;;2.31;59.90
55171;BME280;41060;47.510;8.680;2022-12-20T04:08:45;97735.31;;;2.35;60.78
55171;BME280;41060;47.510;8.680;2022-12-20T04:11:13;97726.94;;;2.49;60.66
55171;BME280;41060;47.510;8.680;2022-12-20T04:13:44;97732.13;;;2.27;61.12
55171;BME280;41060;47.510;8.680;2022-12-20T04:16:14;97691.25;;;2.25;60.50
55171;BME280;41060;47.510;8.680;2022-12-20T04:18:41;97727.50;;;2.34;60.51
55171;BME280;41060;47.510;8.680;2022-12-20T04:21:11;97709.63;;;2.23;61.32
55171;BME280;41060;47.510;8.680;2022-12-20T04:23:40;97710.06;;;2.34;61.04
55171;BME280;41060;47.510;8.680;2022-12-20T04:26:08;97719.22;;;2.23;60.87
55171;BME280;41060;47.510;8.680;2022-12-20T04:28:37;97718.44;;;2.21;60.77
55171;BME280;41060;47.510;8.680;2022-12-20T04:31:04;97718.09;;;2.30;61.29
55171;BME280;41060;47.510;8.680;2022-12-20T04:33:31;97727.97;;;2.22;61.05
55171;BME280;41060;47.510;8.680;2022-12-20T04:35:57;97717.56;;;2.43;61.04
55171;BME280;41060;47.510;8.680;2022-12-20T04:38:25;97719.81;;;2.31;61.37
55171;BME280;41060;47.510;8.680;2022-12-20T04:40:53;97712.44;;;2.40;61.01
55171;BME280;41060;47.510;8.680;2022-12-20T04:43:20;97712.25;;;2.46;60.98
55171;BME280;41060;47.510;8.680;2022-12-20T04:45:50;97717.91;;;2.57;60.56
55171;BME280;41060;47.510;8.680;2022-12-20T04:48:18;97702.69;;;2.45;60.71
55171;BME280;41060;47.510;8.680;2022-12-20T04:50:46;97702.22;;;2.57;61.22
55171;BME280;41060;47.510;8.680;2022-12-20T04:53:14;97712.31;;;2.67;60.29
55171;BME280;41060;47.510;8.680;2022-12-20T04:55:58;97710.53;;;2.45;61.02
55171;BME280;41060;47.510;8.680;2022-12-20T04:58:28;97700.72;;;2.29;61.11
55171;BME280;41060;47.510;8.680;2022-12-20T05:00:56;97705.66;;;2.36;61.16
55171;BME280;41060;47.510;8.680;2022-12-20T05:03:24;97706.22;;;2.21;61.36
55171;BME280;41060;47.510;8.680;2022-12-20T05:05:53;97707.78;;;2.25;61.15
55171;BME280;41060;47.510;8.680;2022-12-20T05:08:20;97704.59;;;2.17;60.55
55171;BME280;41060;47.510;8.680;2022-12-20T05:10:47;97695.59;;;2.26;61.08
55171;BME280;41060;47.510;8.680;2022-12-20T05:13:14;97689.63;;;2.22;60.80
55171;BME280;41060;47.510;8.680;2022-12-20T05:15:41;97666.41;;;2.14;61.14
55171;BME280;41060;47.510;8.680;2022-12-20T05:18:09;97694.97;;;2.42;61.21
55171;BME280;41060;47.510;8.680;2022-12-20T05:20:36;97686.22;;;2.43;61.05
55171;BME280;41060;47.510;8.680;2022-12-20T05:23:03;97679.72;;;2.53;62.30
55171;BME280;41060;47.510;8.680;2022-12-20T05:25:49;97683.63;;;2.65;60.70
55171;BME280;41060;47.510;8.680;2022-12-20T05:28:33;97689.34;;;2.75;60.62
55171;BME280;41060;47.510;8.680;2022-12-20T05:31:00;97690.75;;;2.83;60.75
55171;BME280;41060;47.510;8.680;2022-12-20T05:33:28;97683.50;;;2.90;60.05
55171;BME280;41060;47.510;8.680;2022-12-20T05:35:57;97613.53;;;2.53;59.76
55171;BME280;41060;47.510;8.680;2022-12-20T05:38:25;97682.34;;;2.97;59.88
55171;BME280;41060;47.510;8.680;2022-12-20T05:40:51;97680.66;;;2.74;60.23
55171;BME280;41060;47.510;8.680;2022-12-20T05:43:18;97674.63;;;2.72;60.39
55171;BME280;41060;47.510;8.680;2022-12-20T05:45:46;97667.38;;;2.79;60.61
55171;BME280;41060;47.510;8.680;2022-12-20T05:48:14;97642.94;;;2.80;59.77
55171;BME280;41060;47.510;8.680;2022-12-20T05:50:42;97636.66;;;2.84;59.51
55171;BME280;41060;47.510;8.680;2022-12-20T05:53:10;97630.47;;;2.86;59.25
55171;BME280;41060;47.510;8.680;2022-12-20T05:55:37;97658.63;;;3.02;59.50
55171;BME280;41060;47.510;8.680;2022-12-20T05:58:05;97621.38;;;2.53;59.91
55171;BME280;41060;47.510;8.680;2022-12-20T06:00:33;97659.63;;;2.54;60.45
55171;BME280;41060;47.510;8.680;2022-12-20T06:02:59;97659.28;;;2.41;60.60
55171;BME280;41060;47.510;8.680;2022-12-20T06:05:26;97659.53;;;2.12;61.69
55171;BME280;41060;47.510;8.680;2022-12-20T06:07:54;97666.22;;;2.19;61.29
55171;BME280;41060;47.510;8.680;2022-12-20T06:10:21;97668.03;;;2.17;61.04
55171;BME280;41060;47.510;8.680;2022-12-20T06:12:47;97664.50;;;2.18;61.27
55171;BME280;41060;47.510;8.680;2022-12-20T06:15:14;97610.50;;;1.95;61.57
55171;BME280;41060;47.510;8.680;2022-12-20T06:17:41;97660.91;;;2.22;61.20
55171;BME280;41060;47.510;8.680;2022-12-20T06:20:08;97659.81;;;2.28;60.85
55171;BME280;41060;47.510;8.680;2022-12-20T06:22:37;97654.34;;;2.34;61.16
55171;BME280;41060;47.510;8.680;2022-12-20T06:25:06;97655.03;;;2.39;59.93
55171;BME280;41060;47.510;8.680;2022-12-20T06:27:33;97653.09;;;2.44;60.25
55171;BME280;41060;47.510;8.680;2022-12-20T06:30:01;97619.09;;;2.22;59.73
55171;BME280;41060;47.510;8.680;2022-12-20T06:32:27;97657.78;;;2.57;59.60
55171;BME280;41060;47.510;8.680;2022-12-20T06:34:54;97644.59;;;2.61;59.51
55171;BME280;41060;47.510;8.680;2022-12-20T06:37:21;97646.06;;;2.68;59.50
55171;BME280;41060;47.510;8.680;2022-12-20T06:39:47;97641.97;;;2.61;59.55
55171;BME280;41060;47.510;8.680;2022-12-20T06:42:15;97644.50;;;2.40;59.65
55171;BME280;41060;47.510;8.680;2022-12-20T06:44:42;97643.53;;;2.43;59.72
55171;BME280;41060;47.510;8.680;2022-12-20T06:47:09;97652.25;;;2.20;60.39
55171;BME280;41060;47.510;8.680;2022-12-20T06:49:35;97656.56;;;2.21;60.50
55171;BME280;41060;47.510;8.680;2022-12-20T06:52:03;97659.81;;;2.28;60.17
55171;BME280;41060;47.510;8.680;2022-12-20T06:54:30;97669.28;;;2.30;59.72
55171;BME280;41060;47.510;8.680;2022-12-20T06:56:56;97654.22;;;2.37;60.28
55171;BME280;41060;47.510;8.680;2022-12-20T06:59:25;97657.72;;;2.14;60.19
55171;BME280;41060;47.510;8.680;2022-12-20T07:01:51;97660.09;;;2.20;60.00
55171;BME280;41060;47.510;8.680;2022-12-20T07:04:18;97656.84;;;2.13;60.37
55171;BME280;41060;47.510;8.680;2022-12-20T07:06:45;97657.44;;;2.22;60.28
55171;BME280;41060;47.510;8.680;2022-12-20T07:09:11;97650.00;;;2.33;59.94
55171;BME280;41060;47.510;8.680;2022-12-20T07:11:38;97645.50;;;2.38;59.94
55171;BME280;41060;47.510;8.680;2022-12-20T07:14:08;97647.00;;;2.43;59.92
55171;BME280;41060;47.510;8.680;2022-12-20T07:16:42;97635.88;;;2.38;59.62
55171;BME280;41060;47.510;8.680;2022-12-20T07:19:10;97639.81;;;2.48;60.21
55171;BME280;41060;47.510;8.680;2022-12-20T07:21:36;97538.97;;;1.54;60.46
55171;BME280;41060;47.510;8.680;2022-12-20T07:24:04;97596.50;;;1.98;60.82
55171;BME280;41060;47.510;8.680;2022-12-20T07:26:31;97634.06;;;2.17;61.23
55171;BME280;41060;47.510;8.680;2022-12-20T07:28:58;97639.41;;;2.14;61.48
55171;BME280;41060;47.510;8.680;2022-12-20T07:31:24;97645.03;;;2.03;61.83
55171;BME280;41060;47.510;8.680;2022-12-20T07:33:53;97644.09;;;2.06;61.59
55171;BME280;41060;47.510;8.680;2022-12-20T07:36:20;97639.25;;;1.95;61.72
55171;BME280;41060;47.510;8.680;2022-12-20T07:38:46;97606.88;;;1.76;61.58
55171;BME280;41060;47.510;8.680;2022-12-20T07:41:15;97650.81;;;1.88;62.18
55171;BME280;41060;47.510;8.680;2022-12-20T07:43:42;97654.19;;;1.92;62.16
55171;BME280;41060;47.510;8.680;2022-12-20T07:46:09;97653.16;;;1.96;61.98
55171;BME280;41060;47.510;8.680;2022-12-20T07:48:38;97656.47;;;2.01;62.37
55171;BME280;41060;47.510;8.680;2022-12-20T07:51:08;97659.84;;;2.03;62.28
55171;BME280;41060;47.510;8.680;2022-12-20T07:53:39;97660.88;;;1.99;61.66
55171;BME280;41060;47.510;8.680;2022-12-20T07:56:08;97657.47;;;1.97;62.08
55171;BME280;41060;47.510;8.680;2022-12-20T07:58:36;97646.78;;;2.03;62.45
55171;BME280;41060;47.510;8.680;2022-12-20T08:01:04;97647.66;;;2.03;61.73
55171;BME280;41060;47.510;8.680;2022-12-20T08:03:35;97655.44;;;2.28;61.35
55171;BME280;41060;47.510;8.680;2022-12-20T08:06:07;97654.09;;;2.40;61.30
55171;BME280;41060;47.510;8.680;2022-12-20T08:08:36;97650.56;;;2.41;61.12
55171;BME280;41060;47.510;8.680;2022-12-20T08:11:05;97639.06;;;2.46;60.33
55171;BME280;41060;47.510;8.680;2022-12-20T08:13:35;97643.13;;;2.53;60.91
55171;BME280;41060;47.510;8.680;2022-12-20T08:16:02;97619.59;;;2.53;60.62
55171;BME280;41060;47.510;8.680;2022-12-20T08:18:29;97643.13;;;2.75;60.38
55171;BME280;41060;47.510;8.680;2022-12-20T08:20:56;97633.59;;;2.74;60.21
55171;BME280;41060;47.510;8.680;2022-12-20T08:23:24;97634.91;;;2.63;60.93
55171;BME280;41060;47.510;8.680;2022-12-20T08:25:51;97637.25;;;2.47;61.90
55171;BME280;41060;47.510;8.680;2022-12-20T08:28:18;97600.88;;;2.42;61.60
55171;BME280;41060;47.510;8.680;2022-12-20T08:30:44;97601.78;;;2.63;61.55
55171;BME280;41060;47.510;8.680;2022-12-20T08:33:11;97619.28;;;2.83;60.54
55171;BME280;41060;47.510;8.680;2022-12-20T08:35:38;97615.25;;;2.96;60.26
55171;BME280;41060;47.510;8.680;2022-12-20T08:38:05;97623.03;;;2.97;60.54
55171;BME280;41060;47.510;8.680;2022-12-20T08:40:33;97614.78;;;3.07;59.54
55171;BME280;41060;47.510;8.680;2022-12-20T08:43:00;97616.16;;;3.15;60.15
55171;BME280;41060;47.510;8.680;2022-12-20T08:45:27;97612.72;;;3.15;60.00
55171;BME280;41060;47.510;8.680;2022-12-20T08:47:57;97615.91;;;3.01;59.92
55171;BME280;41060;47.510;8.680;2022-12-20T08:50:24;97603.28;;;2.90;60.63
55171;BME280;41060;47.510;8.680;2022-12-20T08:52:51;97607.16;;;3.02;60.86
55171;BME280;41060;47.510;8.680;2022-12-20T08:55:17;97614.34;;;2.97;60.83
55171;BME280;41060;47.510;8.680;2022-12-20T08:57:46;97528.25;;;2.29;61.67
55171;BME280;41060;47.510;8.680;2022-12-20T09:00:13;97622.13;;;2.77;61.69
55171;BME280;41060;47.510;8.680;2022-12-20T09:02:40;97620.56;;;2.73;61.71
55171;BME280;41060;47.510;8.680;2022-12-20T09:05:08;97628.66;;;2.67;62.27
55171;BME280;41060;47.510;8.680;2022-12-20T09:07:34;97625.84;;;2.71;61.60
55171;BME280;41060;47.510;8.680;2022-12-20T09:10:01;97614.78;;;2.65;62.05
55171;BME280;41060;47.510;8.680;2022-12-20T09:12:28;97626.75;;;2.70;61.99
55171;BME280;41060;47.510;8.680;2022-12-20T09:14:56;97626.03;;;2.88;61.90
55171;BME280;41060;47.510;8.680;2022-12-20T09:17:25;97632.06;;;2.90;61.83
55171;BME280;41060;47.510;8.680;2022-12-20T09:19:52;97631.50;;;2.82;61.73
55171;BME280;41060;47.510;8.680;2022-12-20T09:22:19;97627.44;;;2.75;62.43
55171;BME280;41060;47.510;8.680;2022-12-20T09:24:46;97622.22;;;2.75;62.34
55171;BME280;41060;47.510;8.680;2022-12-20T09:27:14;97635.38;;;2.94;62.31
55171;BME280;41060;47.510;8.680;2022-12-20T09:29:40;97633.03;;;3.08;61.74
55171;BME280;41060;47.510;8.680;2022-12-20T09:32:08;97628.03;;;3.24;61.06
55171;BME280;41060;47.510;8.680;2022-12-20T09:34:35;97629.00;;;3.21;61.68
55171;BME280;41060;47.510;8.680;2022-12-20T09:37:02;97626.91;;;3.09;61.32
55171;BME280;41060;47.510;8.680;2022-12-20T09:39:28;97606.22;;;3.03;62.48
55171;BME280;41060;47.510;8.680;2022-12-20T09:41:56;97619.66;;;3.16;61.71
55171;BME280;41060;47.510;8.680;2022-12-20T09:44:28;97615.19;;;2.97;62.76
55171;BME280;41060;47.510;8.680;2022-12-20T09:46:58;97620.16;;;3.04;62.26
55171;BME280;41060;47.510;8.680;2022-12-20T09:49:30;97612.59;;;3.18;62.13
55171;BME280;41060;47.510;8.680;2022-12-20T09:52:28;97608.28;;;3.17;61.81
55171;BME280;41060;47.510;8.680;2022-12-20T09:55:00;97617.50;;;3.25;62.51
55171;BME280;41060;47.510;8.680;2022-12-20T09:57:46;97610.50;;;3.26;62.55
55171;BME280;41060;47.510;8.680;2022-12-20T10:00:18;97590.47;;;3.25;62.40
55171;BME280;41060;47.510;8.680;2022-12-20T10:02:45;97589.47;;;3.49;61.65
55171;BME280;41060;47.510;8.680;2022-12-20T10:05:16;97590.34;;;3.68;60.89
55171;BME280;41060;47.510;8.680;2022-12-20T10:07:52;97584.53;;;3.81;61.07
55171;BME280;41060;47.510;8.680;2022-12-20T10:10:40;97581.16;;;3.97;60.50
55171;BME280;41060;47.510;8.680;2022-12-20T10:13:18;97589.78;;;3.81;61.02
55171;BME280;41060;47.510;8.680;2022-12-20T10:15:50;97578.72;;;3.74;60.95
55171;BME280;41060;47.510;8.680;2022-12-20T10:18:26;97562.47;;;3.86;60.91
55171;BME280;41060;47.510;8.680;2022-12-20T10:21:01;97559.50;;;3.94;60.64
55171;BME280;41060;47.510;8.680;2022-12-20T10:23:36;97548.72;;;3.81;60.67
55171;BME280;41060;47.510;8.680;2022-12-20T10:26:07;97549.22;;;3.89;60.91
55171;BME280;41060;47.510;8.680;2022-12-20T10:28:35;97557.94;;;3.71;61.51
55171;BME280;41060;47.510;8.680;2022-12-20T10:31:06;97548.16;;;3.74;61.09
55171;BME280;41060;47.510;8.680;2022-12-20T10:33:33;97535.78;;;3.78;60.49
55171;BME280;41060;47.510;8.680;2022-12-20T10:36:18;97533.66;;;3.86;61.22
55171;BME280;41060;47.510;8.680;2022-12-20T10:38:48;97523.09;;;3.69;61.59
55171;BME280;41060;47.510;8.680;2022-12-20T10:41:17;97522.53;;;3.81;61.44
55171;BME280;41060;47.510;8.680;2022-12-20T10:43:46;97508.06;;;3.72;61.19
55171;BME280;41060;47.510;8.680;2022-12-20T10:46:14;97510.28;;;3.82;61.12
55171;BME280;41060;47.510;8.680;2022-12-20T10:48:46;97511.53;;;3.73;61.24
55171;BME280;41060;47.510;8.680;2022-12-20T10:51:15;97504.88;;;3.66;61.90
55171;BME280;41060;47.510;8.680;2022-12-20T10:53:52;97491.31;;;3.77;61.75
55171;BME280;41060;47.510;8.680;2022-12-20T10:56:21;97484.75;;;3.87;61.88
55171;BME280;41060;47.510;8.680;2022-12-20T10:58:55;97480.34;;;3.87;61.64
55171;BME280;41060;47.510;8.680;2022-12-20T11:01:26;97466.78;;;3.96;61.80
55171;BME280;41060;47.510;8.680;2022-12-20T11:03:56;97475.50;;;3.97;62.06
55171;BME280;41060;47.510;8.680;2022-12-20T11:06:29;97466.84;;;3.95;61.79
55171;BME280;41060;47.510;8.680;2022-12-20T11:09:25;97455.44;;;4.15;60.88
55171;BME280;41060;47.510;8.680;2022-12-20T11:12:01;97467.38;;;4.20;61.37
55171;BME280;41060;47.510;8.680;2022-12-20T11:14:29;97484.75;;;4.23;61.55
55171;BME280;41060;47.510;8.680;2022-12-20T11:16:58;97477.84;;;4.39;60.66
55171;BME280;41060;47.510;8.680;2022-12-20T11:19:32;97477.06;;;4.54;60.06
55171;BME280;41060;47.510;8.680;2022-12-20T11:22:14;97467.41;;;4.55;60.64
55171;BME280;41060;47.510;8.680;2022-12-20T11:24:51;97459.72;;;4.69;60.17
55171;BME280;41060;47.510;8.680;2022-12-20T11:27:31;97393.00;;;4.40;59.89
55171;BME280;41060;47.510;8.680;2022-12-20T11:30:07;97438.03;;;4.82;59.39
55171;BME280;41060;47.510;8.680;2022-12-20T11:32:46;97432.41;;;4.73;59.52
55171;BME280;41060;47.510;8.680;2022-12-20T11:35:22;97421.63;;;4.44;61.44
55171;BME280;41060;47.510;8.680;2022-12-20T11:37:59;97422.84;;;4.55;61.18
55171;BME280;41060;47.510;8.680;2022-12-20T11:40:32;97421.59;;;4.62;61.08
55171;BME280;41060;47.510;8.680;2022-12-20T11:43:13;97392.53;;;4.66;60.75
55171;BME280;41060;47.510;8.680;2022-12-20T11:45:51;97411.53;;;5.04;60.27
55171;BME280;41060;47.510;8.680;2022-12-20T11:48:38;97412.66;;;5.16;59.57
55171;BME280;41060;47.510;8.680;2022-12-20T11:51:13;97410.78;;;5.18;59.27
55171;BME280;41060;47.510;8.680;2022-12-20T11:53:51;97407.06;;;5.22;59.36
55171;BME280;41060;47.510;8.680;2022-12-20T11:56:25;97392.59;;;5.30;59.54
55171;BME280;41060;47.510;8.680;2022-12-20T11:58:56;97398.59;;;5.17;59.88
55171;BME280;41060;47.510;8.680;2022-12-20T12:01:30;97392.31;;;5.04;60.53
55171;BME280;41060;47.510;8.680;2022-12-20T12:04:05;97402.34;;;4.96;60.45
55171;BME280;41060;47.510;8.680;2022-12-20T12:06:37;97397.13;;;4.78;61.22
55171;BME280;41060;47.510;8.680;2022-12-20T12:09:13;97386.63;;;4.96;61.00
55171;BME280;41060;47.510;8.680;2022-12-20T12:11:46;97389.84;;;5.01;60.42
55171;BME280;41060;47.510;8.680;2022-12-20T12:14:26;97380.50;;;5.28;59.99
55171;BME280;41060;47.510;8.680;2022-12-20T12:16:58;97378.38;;;5.50;59.11
55171;BME280;41060;47.510;8.680;2022-12-20T12:19:30;97363.56;;;5.65;58.80
55171;BME280;41060;47.510;8.680;2022-12-20T12:22:01;97360.09;;;5.64;58.71
55171;BME280;41060;47.510;8.680;2022-12-20T12:24:33;97364.16;;;5.70;58.73
55171;BME280;41060;47.510;8.680;2022-12-20T12:27:06;97368.41;;;5.57;58.43
55171;BME280;41060;47.510;8.680;2022-12-20T12:29:37;97374.66;;;5.54;58.64
55171;BME280;41060;47.510;8.680;2022-12-20T12:32:07;97364.94;;;5.56;58.19
55171;BME280;41060;47.510;8.680;2022-12-20T12:34:49;97369.31;;;5.40;58.84
55171;BME280;41060;47.510;8.680;2022-12-20T12:37:42;97347.44;;;5.24;59.11
55171;BME280;41060;47.510;8.680;2022-12-20T12:40:28;97353.28;;;5.29;59.86
55171;BME280;41060;47.510;8.680;2022-12-20T12:46:15;97345.69;;;5.40;59.30
55171;BME280;41060;47.510;8.680;2022-12-20T12:48:47;97328.66;;;5.32;59.30
55171;BME280;41060;47.510;8.680;2022-12-20T12:51:24;97328.16;;;5.25;59.92
55171;BME280;41060;47.510;8.680;2022-12-20T12:53:53;97344.72;;;4.94;61.21
55171;BME280;41060;47.510;8.680;2022-12-20T12:56:37;97349.59;;;4.84;62.03
55171;BME280;41060;47.510;8.680;2022-12-20T12:59:19;97346.09;;;4.84;62.30
55171;BME280;41060;47.510;8.680;2022-12-20T13:01:51;97340.84;;;4.68;62.20
55171;BME280;41060;47.510;8.680;2022-12-20T13:04:25;97364.72;;;4.46;63.50
55171;BME280;41060;47.510;8.680;2022-12-20T13:06:56;97326.38;;;4.44;62.93
55171;BME280;41060;47.510;8.680;2022-12-20T13:09:40;97351.09;;;4.73;62.56
55171;BME280;41060;47.510;8.680;2022-12-20T13:18:34;97332.47;;;5.26;60.48
55171;BME280;41060;47.510;8.680;2022-12-20T13:21:35;97331.78;;;5.54;60.09
55171;BME280;41060;47.510;8.680;2022-12-20T13:24:46;97336.25;;;5.52;59.82
55171;BME280;41060;47.510;8.680;2022-12-20T13:27:34;97327.81;;;5.47;60.29
55171;BME280;41060;47.510;8.680;2022-12-20T13:33:15;97319.56;;;5.68;59.68
55171;BME280;41060;47.510;8.680;2022-12-20T13:36:00;97333.13;;;5.77;59.54
55171;BME280;41060;47.510;8.680;2022-12-20T13:38:48;97333.06;;;5.62;59.95
55171;BME280;41060;47.510;8.680;2022-12-20T13:41:29;97338.66;;;5.41;60.74